createdAt,value
2023-04-30T00:00:12.721Z,63.26
2023-04-30T00:01:12.723Z,63.79
2023-04-30T00:02:12.757Z,64.05
2023-04-30T00:03:12.798Z,63.86
2023-04-30T00:04:12.705Z,64.52
2023-04-30T00:05:12.673Z,64.40
2023-04-30T00:06:12.691Z,63.22
2023-04-30T00:07:12.650Z,62.30
2023-04-30T00:08:12.638Z,63.27
2023-04-30T00:09:12.635Z,63.85
2023-04-30T00:10:12.627Z,63.54
2023-04-30T00:11:12.646Z,63.33
2023-04-30T00:12:12.614Z,64.90
2023-04-30T00:13:12.596Z,62.90
2023-04-30T00:14:12.595Z,62.77
2023-04-30T00:15:12.577Z,63.73
2023-04-30T00:16:12.621Z,63.66
2023-04-30T00:17:12.569Z,64.00
2023-04-30T00:18:12.621Z,63.59
2023-04-30T00:19:12.549Z,63.64
2023-04-30T00:20:12.542Z,63.27
2023-04-30T00:21:12.530Z,64.94
2023-04-30T00:22:12.519Z,63.89
2023-04-30T00:23:12.509Z,63.78
2023-04-30T00:24:12.510Z,63.47
2023-04-30T00:25:12.493Z,63.20
2023-04-30T00:26:12.489Z,63.83
2023-04-30T00:27:12.470Z,64.02
2023-04-30T00:28:12.465Z,63.46
2023-04-30T00:29:12.450Z,62.47
2023-04-30T00:30:12.446Z,61.68
2023-04-30T00:31:12.444Z,62.99
2023-04-30T00:32:12.521Z,64.38
2023-04-30T00:33:12.478Z,64.67
2023-04-30T00:34:12.441Z,63.35
2023-04-30T00:35:12.460Z,63.11
2023-04-30T00:36:12.404Z,63.12
2023-04-30T00:37:12.429Z,64.00
2023-04-30T00:38:12.375Z,63.54
2023-04-30T00:39:12.365Z,63.35
2023-04-30T00:40:12.363Z,62.68
2023-04-30T00:41:12.353Z,62.52
2023-04-30T00:42:12.361Z,62.61
2023-04-30T00:43:12.362Z,63.38
2023-04-30T00:44:12.320Z,63.51
2023-04-30T00:45:12.306Z,62.38
2023-04-30T00:46:12.330Z,63.85
2023-04-30T00:47:12.284Z,64.02
2023-04-30T00:48:12.291Z,63.44
2023-04-30T00:49:12.286Z,62.62
2023-04-30T00:50:12.265Z,61.99
2023-04-30T00:51:12.267Z,62.56
2023-04-30T00:52:12.238Z,64.71
2023-04-30T00:53:12.236Z,63.79
2023-04-30T00:54:12.221Z,61.37
2023-04-30T00:55:12.212Z,62.65
2023-04-30T00:56:12.215Z,63.66
2023-04-30T00:57:12.193Z,63.37
2023-04-30T00:58:12.184Z,63.34
2023-04-30T00:59:12.177Z,63.09
2023-04-30T01:00:12.167Z,63.96
2023-04-30T01:01:12.220Z,63.39
2023-04-30T01:02:12.176Z,61.79
2023-04-30T01:03:12.165Z,62.99
2023-04-30T01:04:12.132Z,63.56
2023-04-30T01:05:12.114Z,64.18
2023-04-30T01:06:12.180Z,63.44
2023-04-30T01:07:12.094Z,64.03
2023-04-30T01:08:12.091Z,63.78
2023-04-30T01:09:12.073Z,63.58
2023-04-30T01:10:12.058Z,63.70
2023-04-30T01:11:12.062Z,63.91
2023-04-30T01:12:12.058Z,63.58
2023-04-30T01:13:12.030Z,63.10
2023-04-30T01:14:12.027Z,62.42
2023-04-30T01:15:13.010Z,64.44
2023-04-30T01:16:12.087Z,63.80
2023-04-30T01:17:11.997Z,63.65
2023-04-30T01:18:12.130Z,63.94
2023-04-30T01:19:12.062Z,63.68
2023-04-30T01:20:11.990Z,63.33
2023-04-30T01:21:11.972Z,63.49
2023-04-30T01:22:11.959Z,63.58
2023-04-30T01:23:11.941Z,64.08
2023-04-30T01:24:11.932Z,64.11
2023-04-30T01:25:11.951Z,64.21
2023-04-30T01:26:11.920Z,64.13
2023-04-30T01:27:11.903Z,63.70
2023-04-30T01:28:12.893Z,63.32
2023-04-30T01:29:11.884Z,63.92
2023-04-30T01:30:11.878Z,63.86
2023-04-30T01:31:11.925Z,63.97
2023-04-30T01:32:11.865Z,62.94
2023-04-30T01:33:11.914Z,64.05
2023-04-30T01:34:11.830Z,63.37
2023-04-30T01:35:11.826Z,63.87
2023-04-30T01:36:11.880Z,64.14
2023-04-30T01:37:11.829Z,64.04
2023-04-30T01:38:11.806Z,64.08
2023-04-30T01:39:11.787Z,63.52
2023-04-30T01:40:11.786Z,63.49
2023-04-30T01:41:11.789Z,63.96
2023-04-30T01:42:11.780Z,64.12
2023-04-30T01:43:11.780Z,63.78
2023-04-30T01:44:11.742Z,63.82
2023-04-30T01:45:11.738Z,64.17
2023-04-30T01:46:11.832Z,64.39
2023-04-30T01:47:11.717Z,63.66
2023-04-30T01:48:11.707Z,64.10
2023-04-30T01:49:11.705Z,65.08
2023-04-30T01:50:11.701Z,63.80
2023-04-30T01:51:11.694Z,64.21
2023-04-30T01:52:11.687Z,63.84
2023-04-30T01:53:11.685Z,64.10
2023-04-30T01:54:11.655Z,64.13
2023-04-30T01:55:11.649Z,64.43
2023-04-30T01:56:11.652Z,64.29
2023-04-30T01:57:11.652Z,64.03
2023-04-30T01:58:11.628Z,64.07
2023-04-30T01:59:11.615Z,64.56
2023-04-30T02:00:11.637Z,64.57
2023-04-30T02:01:11.612Z,65.17
2023-04-30T02:02:11.592Z,64.98
2023-04-30T02:03:11.630Z,64.44
2023-04-30T02:04:11.563Z,63.43
2023-04-30T02:05:11.558Z,63.57
2023-04-30T02:06:11.594Z,63.77
2023-04-30T02:07:11.545Z,64.47
2023-04-30T02:08:11.537Z,64.49
2023-04-30T02:09:11.530Z,65.81
2023-04-30T02:10:11.516Z,64.89
2023-04-30T02:11:11.513Z,64.02
2023-04-30T02:12:11.506Z,64.92
2023-04-30T02:13:11.491Z,64.37
2023-04-30T02:14:11.484Z,63.85
2023-04-30T02:15:11.487Z,64.94
2023-04-30T02:16:11.618Z,64.55
2023-04-30T02:17:11.464Z,64.37
2023-04-30T02:18:11.475Z,64.33
2023-04-30T02:19:11.451Z,64.38
2023-04-30T02:20:11.430Z,63.65
2023-04-30T02:21:11.415Z,63.42
2023-04-30T02:22:11.418Z,64.09
2023-04-30T02:23:11.400Z,64.85
2023-04-30T02:24:11.382Z,63.70
2023-04-30T02:25:11.373Z,65.26
2023-04-30T02:26:11.377Z,65.18
2023-04-30T02:27:11.373Z,64.87
2023-04-30T02:28:11.384Z,66.28
2023-04-30T02:29:11.343Z,65.76
2023-04-30T02:30:11.339Z,65.45
2023-04-30T02:31:11.350Z,65.58
2023-04-30T02:32:11.326Z,64.90
2023-04-30T02:33:11.324Z,65.53
2023-04-30T02:34:11.313Z,65.41
2023-04-30T02:35:11.286Z,67.21
2023-04-30T02:36:11.277Z,66.02
2023-04-30T02:37:11.309Z,65.81
2023-04-30T02:38:11.254Z,65.47
2023-04-30T02:39:11.251Z,66.10
2023-04-30T02:40:11.244Z,65.95
2023-04-30T02:41:11.237Z,67.53
2023-04-30T02:42:11.240Z,67.25
2023-04-30T02:43:11.209Z,67.81
2023-04-30T02:44:11.204Z,68.66
2023-04-30T02:45:11.192Z,69.82
2023-04-30T02:46:11.199Z,69.29
2023-04-30T02:47:11.180Z,68.89
2023-04-30T02:48:11.160Z,68.47
2023-04-30T02:49:11.158Z,68.00
2023-04-30T02:50:11.141Z,68.29
2023-04-30T02:51:11.135Z,68.70
2023-04-30T02:52:11.144Z,67.81
2023-04-30T02:53:11.113Z,68.15
2023-04-30T02:54:11.107Z,68.34
2023-04-30T02:55:11.102Z,67.30
2023-04-30T02:56:11.116Z,67.40
2023-04-30T02:57:11.097Z,67.72
2023-04-30T02:58:11.074Z,67.33
2023-04-30T02:59:11.057Z,67.46
2023-04-30T03:00:11.057Z,66.73
2023-04-30T03:01:11.077Z,66.83
2023-04-30T03:02:11.063Z,67.59
2023-04-30T03:03:11.306Z,67.88
2023-04-30T03:04:11.015Z,65.23
2023-04-30T03:05:11.005Z,67.55
2023-04-30T03:06:11.013Z,68.03
2023-04-30T03:07:11.000Z,68.62
2023-04-30T03:08:10.986Z,69.12
2023-04-30T03:09:10.967Z,68.32
2023-04-30T03:10:10.955Z,67.82
2023-04-30T03:11:10.950Z,67.72
2023-04-30T03:12:10.952Z,67.92
2023-04-30T03:13:10.939Z,68.91
2023-04-30T03:14:10.949Z,69.52
2023-04-30T03:15:10.922Z,69.97
2023-04-30T03:16:10.908Z,70.23
2023-04-30T03:17:10.926Z,69.55
2023-04-30T03:18:10.931Z,69.33
2023-04-30T03:19:10.884Z,68.10
2023-04-30T03:20:10.878Z,67.02
2023-04-30T03:21:10.866Z,67.49
2023-04-30T03:22:10.977Z,67.97
2023-04-30T03:23:10.850Z,67.93
2023-04-30T03:24:10.851Z,66.86
2023-04-30T03:25:10.827Z,67.56
2023-04-30T03:26:10.827Z,67.44
2023-04-30T03:27:10.829Z,66.85
2023-04-30T03:28:10.803Z,67.95
2023-04-30T03:29:10.806Z,67.29
2023-04-30T03:30:10.788Z,66.83
2023-04-30T03:31:10.789Z,66.00
2023-04-30T03:32:10.791Z,65.78
2023-04-30T03:33:10.815Z,66.94
2023-04-30T03:34:10.747Z,65.91
2023-04-30T03:35:10.743Z,67.10
2023-04-30T03:36:10.730Z,66.85
2023-04-30T03:37:10.723Z,66.36
2023-04-30T03:38:10.726Z,67.07
2023-04-30T03:39:10.703Z,66.62
2023-04-30T03:40:10.702Z,65.86
2023-04-30T03:41:10.694Z,67.26
2023-04-30T03:42:10.687Z,66.25
2023-04-30T03:43:10.681Z,65.76
2023-04-30T03:44:10.659Z,65.55
2023-04-30T03:45:10.652Z,65.46
2023-04-30T03:46:10.661Z,66.73
2023-04-30T03:47:10.648Z,65.24
2023-04-30T03:48:10.689Z,66.51
2023-04-30T03:49:10.616Z,65.08
2023-04-30T03:50:10.613Z,68.33
2023-04-30T03:51:10.600Z,66.04
2023-04-30T03:52:10.589Z,65.39
2023-04-30T03:53:10.615Z,65.71
2023-04-30T03:54:10.576Z,65.65
2023-04-30T03:55:10.559Z,66.78
2023-04-30T03:56:10.550Z,67.57
2023-04-30T03:57:10.546Z,65.46
2023-04-30T03:58:10.543Z,65.74
2023-04-30T03:59:10.525Z,66.76
2023-04-30T04:00:10.519Z,67.68
2023-04-30T04:01:10.520Z,65.13
2023-04-30T04:02:10.550Z,67.84
2023-04-30T04:03:10.551Z,69.39
2023-04-30T04:04:10.483Z,68.05
2023-04-30T04:05:10.466Z,66.06
2023-04-30T04:06:10.462Z,65.39
2023-04-30T04:07:10.448Z,68.08
2023-04-30T04:08:10.455Z,69.09
2023-04-30T04:09:10.426Z,68.12
2023-04-30T04:10:10.431Z,68.65
2023-04-30T04:11:10.413Z,69.16
2023-04-30T04:12:10.403Z,68.36
2023-04-30T04:13:10.408Z,68.31
2023-04-30T04:14:10.387Z,68.82
2023-04-30T04:15:10.377Z,68.49
2023-04-30T04:16:10.372Z,68.76
2023-04-30T04:17:10.352Z,68.86
2023-04-30T04:18:10.497Z,68.53
2023-04-30T04:19:10.333Z,67.44
2023-04-30T04:20:12.637Z,68.47
2023-04-30T04:21:10.322Z,68.39
2023-04-30T04:22:10.307Z,66.72
2023-04-30T04:23:10.313Z,67.27
2023-04-30T04:24:10.297Z,67.37
2023-04-30T04:25:10.280Z,67.36
2023-04-30T04:26:10.287Z,67.60
2023-04-30T04:27:10.265Z,68.05
2023-04-30T04:28:10.277Z,68.08
2023-04-30T04:29:10.242Z,66.92
2023-04-30T04:30:10.240Z,67.49
2023-04-30T04:31:10.270Z,66.69
2023-04-30T04:32:10.232Z,67.35
2023-04-30T04:33:10.226Z,68.12
2023-04-30T04:34:10.207Z,66.27
2023-04-30T04:35:10.198Z,66.82
2023-04-30T04:36:10.184Z,66.90
2023-04-30T04:37:10.178Z,65.98
2023-04-30T04:38:10.193Z,66.49
2023-04-30T04:39:10.149Z,65.76
2023-04-30T04:40:10.154Z,68.15
2023-04-30T04:41:10.136Z,69.08
2023-04-30T04:42:10.126Z,70.37
2023-04-30T04:43:10.136Z,69.61
2023-04-30T04:44:10.132Z,67.88
2023-04-30T04:45:10.154Z,67.13
2023-04-30T04:46:12.295Z,66.55
2023-04-30T04:47:10.088Z,67.35
2023-04-30T04:48:10.163Z,67.79
2023-04-30T04:49:10.083Z,66.90
2023-04-30T04:50:10.061Z,65.37
2023-04-30T04:51:10.062Z,66.71
2023-04-30T04:52:10.061Z,67.55
2023-04-30T04:53:10.044Z,69.23
2023-04-30T04:54:10.063Z,68.21
2023-04-30T04:55:10.023Z,66.41
2023-04-30T04:56:10.110Z,67.70
2023-04-30T04:57:09.992Z,67.21
2023-04-30T04:58:10.018Z,67.80
2023-04-30T04:59:10.990Z,68.84
2023-04-30T05:00:09.968Z,67.37
2023-04-30T05:01:09.960Z,67.91
2023-04-30T05:02:10.252Z,69.23
2023-04-30T05:03:10.169Z,68.94
2023-04-30T05:04:09.939Z,68.24
2023-04-30T05:05:09.930Z,67.87
2023-04-30T05:06:09.924Z,67.28
2023-04-30T05:07:09.905Z,69.07
2023-04-30T05:08:09.893Z,69.56
2023-04-30T05:09:09.914Z,68.94
2023-04-30T05:10:09.917Z,69.74
2023-04-30T05:11:09.867Z,69.93
2023-04-30T05:12:09.862Z,69.37
2023-04-30T05:13:09.850Z,70.17
2023-04-30T05:14:09.853Z,70.60
2023-04-30T05:15:09.827Z,66.45
2023-04-30T05:16:09.835Z,68.34
2023-04-30T05:17:09.819Z,69.17
2023-04-30T05:18:10.003Z,70.06
2023-04-30T05:19:09.876Z,69.61
2023-04-30T05:20:09.791Z,68.90
2023-04-30T05:21:09.777Z,67.34
2023-04-30T05:22:09.765Z,69.20
2023-04-30T05:23:09.771Z,69.52
2023-04-30T05:24:09.755Z,69.41
2023-04-30T05:25:09.739Z,70.59
2023-04-30T05:26:09.734Z,69.03
2023-04-30T05:27:09.727Z,68.92
2023-04-30T05:28:09.717Z,67.96
2023-04-30T05:29:09.718Z,70.43
2023-04-30T05:30:09.701Z,69.82
2023-04-30T05:31:09.686Z,69.62
2023-04-30T05:32:09.818Z,68.98
2023-04-30T05:33:09.734Z,69.48
2023-04-30T05:34:09.669Z,69.85
2023-04-30T05:35:09.650Z,70.26
2023-04-30T05:36:09.656Z,70.01
2023-04-30T05:37:09.636Z,70.63
2023-04-30T05:38:09.640Z,70.21
2023-04-30T05:39:09.616Z,69.87
2023-04-30T05:40:09.605Z,69.79
2023-04-30T05:41:09.596Z,68.24
2023-04-30T05:42:09.589Z,69.07
2023-04-30T05:43:09.578Z,68.65
2023-04-30T05:44:09.578Z,67.56
2023-04-30T05:45:09.557Z,68.40
2023-04-30T05:46:09.589Z,70.31
2023-04-30T05:47:09.544Z,69.30
2023-04-30T05:48:09.590Z,70.24
2023-04-30T05:49:09.534Z,69.76
2023-04-30T05:50:09.515Z,69.55
2023-04-30T05:51:09.503Z,69.22
2023-04-30T05:52:09.492Z,70.41
2023-04-30T05:53:09.488Z,69.52
2023-04-30T05:54:09.486Z,69.51
2023-04-30T05:55:09.467Z,68.57
2023-04-30T05:56:09.455Z,71.02
2023-04-30T05:57:09.446Z,70.55
2023-04-30T05:58:09.441Z,70.65
2023-04-30T05:59:09.445Z,69.42
2023-04-30T06:00:09.427Z,69.09
2023-04-30T06:01:09.413Z,68.56
2023-04-30T06:02:09.465Z,69.84
2023-04-30T06:03:09.445Z,69.57
2023-04-30T06:04:09.393Z,68.35
2023-04-30T06:05:09.414Z,69.40
2023-04-30T06:06:09.474Z,68.39
2023-04-30T06:07:09.371Z,68.48
2023-04-30T06:08:09.356Z,67.50
2023-04-30T06:09:09.495Z,67.72
2023-04-30T06:10:09.353Z,66.90
2023-04-30T06:11:09.326Z,68.29
2023-04-30T06:12:09.317Z,68.36
2023-04-30T06:13:09.320Z,67.55
2023-04-30T06:14:09.328Z,68.47
2023-04-30T06:15:09.289Z,67.30
2023-04-30T06:16:09.336Z,68.40
2023-04-30T06:17:09.281Z,66.73
2023-04-30T06:18:09.273Z,69.38
2023-04-30T06:19:09.278Z,67.74
2023-04-30T06:20:09.248Z,68.33
2023-04-30T06:21:09.249Z,66.73
2023-04-30T06:22:09.232Z,66.93
2023-04-30T06:23:09.234Z,66.49
2023-04-30T06:24:09.220Z,66.23
2023-04-30T06:25:09.231Z,66.00
2023-04-30T06:26:09.224Z,67.02
2023-04-30T06:27:09.188Z,63.78
2023-04-30T06:28:09.181Z,66.23
2023-04-30T06:29:09.183Z,65.57
2023-04-30T06:30:09.165Z,64.17
2023-04-30T06:31:09.205Z,65.58
2023-04-30T06:32:09.166Z,63.93
2023-04-30T06:33:09.139Z,66.65
2023-04-30T06:34:09.133Z,66.41
2023-04-30T06:35:09.111Z,64.76
2023-04-30T06:36:09.097Z,64.89
2023-04-30T06:37:09.104Z,65.42
2023-04-30T06:38:09.076Z,65.46
2023-04-30T06:39:09.070Z,65.09
2023-04-30T06:40:09.073Z,67.10
2023-04-30T06:41:09.058Z,65.90
2023-04-30T06:42:09.044Z,64.89
2023-04-30T06:43:09.036Z,67.81
2023-04-30T06:44:09.070Z,64.14
2023-04-30T06:45:09.020Z,65.45
2023-04-30T06:46:09.063Z,65.64
2023-04-30T06:47:08.999Z,65.30
2023-04-30T06:48:09.021Z,64.72
2023-04-30T06:49:08.987Z,63.82
2023-04-30T06:50:08.960Z,65.88
2023-04-30T06:51:10.667Z,67.31
2023-04-30T06:52:08.953Z,65.63
2023-04-30T06:53:08.931Z,65.73
2023-04-30T06:54:08.940Z,65.90
2023-04-30T06:55:08.921Z,64.78
2023-04-30T06:56:08.912Z,64.40
2023-04-30T06:57:08.890Z,66.91
2023-04-30T06:58:08.881Z,65.23
2023-04-30T06:59:08.874Z,66.12
2023-04-30T07:00:08.968Z,67.70
2023-04-30T07:01:08.978Z,65.45
2023-04-30T07:02:08.860Z,65.19
2023-04-30T07:03:08.917Z,67.76
2023-04-30T07:04:08.827Z,64.92
2023-04-30T07:05:08.808Z,66.68
2023-04-30T07:06:08.844Z,67.37
2023-04-30T07:07:08.793Z,67.63
2023-04-30T07:08:08.776Z,66.15
2023-04-30T07:09:08.787Z,66.97
2023-04-30T07:10:08.756Z,66.63
2023-04-30T07:11:08.748Z,67.41
2023-04-30T07:12:08.737Z,65.77
2023-04-30T07:13:08.741Z,67.66
2023-04-30T07:14:08.721Z,67.96
2023-04-30T07:15:08.701Z,67.22
2023-04-30T07:16:08.737Z,67.77
2023-04-30T07:17:08.725Z,66.71
2023-04-30T07:18:08.701Z,67.69
2023-04-30T07:19:08.667Z,67.57
2023-04-30T07:20:08.658Z,68.14
2023-04-30T07:21:08.657Z,65.08
2023-04-30T07:22:08.618Z,66.56
2023-04-30T07:23:09.617Z,67.57
2023-04-30T07:24:08.616Z,67.60
2023-04-30T07:25:08.603Z,66.77
2023-04-30T07:26:08.589Z,69.43
2023-04-30T07:27:08.579Z,67.32
2023-04-30T07:28:08.568Z,68.42
2023-04-30T07:29:08.570Z,69.17
2023-04-30T07:30:08.543Z,68.36
2023-04-30T07:31:08.566Z,66.77
2023-04-30T07:32:08.525Z,67.15
2023-04-30T07:33:08.570Z,66.67
2023-04-30T07:34:08.514Z,65.87
2023-04-30T07:35:08.497Z,67.96
2023-04-30T07:36:08.482Z,68.00
2023-04-30T07:37:08.478Z,67.32
2023-04-30T07:38:08.480Z,67.87
2023-04-30T07:39:08.467Z,68.62
2023-04-30T07:40:08.443Z,68.66
2023-04-30T07:41:08.438Z,67.91
2023-04-30T07:42:08.429Z,68.54
2023-04-30T07:43:08.421Z,68.33
2023-04-30T07:44:08.417Z,66.40
2023-04-30T07:45:08.394Z,65.78
2023-04-30T07:46:08.469Z,67.00
2023-04-30T07:47:08.378Z,67.49
2023-04-30T07:48:08.397Z,67.64
2023-04-30T07:49:08.378Z,66.73
2023-04-30T07:50:08.349Z,68.38
2023-04-30T07:51:08.336Z,68.65
2023-04-30T07:52:08.324Z,66.38
2023-04-30T07:53:08.316Z,67.63
2023-04-30T07:54:08.319Z,67.12
2023-04-30T07:55:08.299Z,67.55
2023-04-30T07:56:08.288Z,67.48
2023-04-30T07:57:08.277Z,66.50
2023-04-30T07:58:08.271Z,68.43
2023-04-30T07:59:08.270Z,66.14
2023-04-30T08:00:08.252Z,68.61
2023-04-30T08:01:08.247Z,68.22
2023-04-30T08:02:08.286Z,67.09
2023-04-30T08:03:08.250Z,67.73
2023-04-30T08:04:08.284Z,66.70
2023-04-30T08:05:08.209Z,67.61
2023-04-30T08:06:09.204Z,65.93
2023-04-30T08:07:08.176Z,67.90
2023-04-30T08:08:08.223Z,68.39
2023-04-30T08:09:08.160Z,69.07
2023-04-30T08:10:08.178Z,67.98
2023-04-30T08:11:08.147Z,68.37
2023-04-30T08:12:08.132Z,69.15
2023-04-30T08:13:08.130Z,66.39
2023-04-30T08:14:08.110Z,68.32
2023-04-30T08:15:08.144Z,68.31
2023-04-30T08:16:08.097Z,67.18
2023-04-30T08:17:08.071Z,67.95
2023-04-30T08:18:08.154Z,68.35
2023-04-30T08:19:08.056Z,66.98
2023-04-30T08:20:08.044Z,68.37
2023-04-30T08:21:08.040Z,69.39
2023-04-30T08:22:08.024Z,69.02
2023-04-30T08:23:08.023Z,68.86
2023-04-30T08:24:08.016Z,68.25
2023-04-30T08:25:08.023Z,67.33
2023-04-30T08:26:07.983Z,68.63
2023-04-30T08:27:07.976Z,67.06
2023-04-30T08:28:07.987Z,66.80
2023-04-30T08:29:07.948Z,67.61
2023-04-30T08:30:07.940Z,68.77
2023-04-30T08:31:07.936Z,68.31
2023-04-30T08:32:07.935Z,69.15
2023-04-30T08:33:08.059Z,69.42
2023-04-30T08:34:07.907Z,67.96
2023-04-30T08:35:07.895Z,67.70
2023-04-30T08:36:07.897Z,68.23
2023-04-30T08:37:07.877Z,68.05
2023-04-30T08:38:07.880Z,66.42
2023-04-30T08:39:07.851Z,67.93
2023-04-30T08:40:07.839Z,66.89
2023-04-30T08:41:07.824Z,67.01
2023-04-30T08:42:07.823Z,66.83
2023-04-30T08:43:07.827Z,68.87
2023-04-30T08:44:08.592Z,68.11
2023-04-30T08:45:08.788Z,68.01
2023-04-30T08:46:07.932Z,67.37
2023-04-30T08:47:07.767Z,69.70
2023-04-30T08:48:08.128Z,68.10
2023-04-30T08:49:07.744Z,69.11
2023-04-30T08:50:07.843Z,69.42
2023-04-30T08:51:07.726Z,69.81
2023-04-30T08:52:07.721Z,68.76
2023-04-30T08:53:07.712Z,70.24
2023-04-30T08:54:07.699Z,68.66
2023-04-30T08:55:07.690Z,68.28
2023-04-30T08:56:07.673Z,68.75
2023-04-30T08:57:07.664Z,68.26
2023-04-30T08:58:07.677Z,67.77
2023-04-30T08:59:07.681Z,68.63
2023-04-30T09:00:07.647Z,68.91
2023-04-30T09:01:07.675Z,68.80
2023-04-30T09:02:07.842Z,68.77
2023-04-30T09:03:07.705Z,68.96
2023-04-30T09:04:07.770Z,70.41
2023-04-30T09:05:07.585Z,68.02
2023-04-30T09:06:07.603Z,66.49
2023-04-30T09:07:09.542Z,67.85
2023-04-30T09:08:08.559Z,67.53
2023-04-30T09:09:07.572Z,69.74
2023-04-30T09:10:07.528Z,67.85
2023-04-30T09:11:07.517Z,69.21
2023-04-30T09:12:07.500Z,69.23
2023-04-30T09:13:07.523Z,67.11
2023-04-30T09:14:07.497Z,67.85
2023-04-30T09:15:07.478Z,67.81
2023-04-30T09:16:07.535Z,67.59
2023-04-30T09:17:07.471Z,68.52
2023-04-30T09:18:07.653Z,68.01
2023-04-30T09:19:07.437Z,69.38
2023-04-30T09:20:07.551Z,70.29
2023-04-30T09:21:07.419Z,71.36
2023-04-30T09:22:07.400Z,68.68
2023-04-30T09:23:07.404Z,68.76
2023-04-30T09:24:07.383Z,68.50
2023-04-30T09:25:07.371Z,69.75
2023-04-30T09:26:07.364Z,68.34
2023-04-30T09:27:07.344Z,67.91
2023-04-30T09:28:08.499Z,68.00
2023-04-30T09:29:07.344Z,68.75
2023-04-30T09:30:07.326Z,67.18
2023-04-30T09:31:07.324Z,68.68
2023-04-30T09:32:07.347Z,68.73
2023-04-30T09:33:09.899Z,70.04
2023-04-30T09:34:07.283Z,69.75
2023-04-30T09:35:07.263Z,68.79
2023-04-30T09:36:07.264Z,69.21
2023-04-30T09:37:07.238Z,67.81
2023-04-30T09:38:07.248Z,68.72
2023-04-30T09:39:09.882Z,69.38
2023-04-30T09:40:08.215Z,67.84
2023-04-30T09:41:07.205Z,69.09
2023-04-30T09:42:07.192Z,67.76
2023-04-30T09:43:07.205Z,65.87
2023-04-30T09:44:07.180Z,66.50
2023-04-30T09:45:07.159Z,67.97
2023-04-30T09:46:07.152Z,68.21
2023-04-30T09:47:07.179Z,67.89
2023-04-30T09:48:16.492Z,66.39
2023-04-30T09:49:09.128Z,67.30
2023-04-30T09:50:07.117Z,68.90
2023-04-30T09:51:07.142Z,68.19
2023-04-30T09:52:07.112Z,67.45
2023-04-30T09:53:07.093Z,68.89
2023-04-30T09:54:07.070Z,68.38
2023-04-30T09:55:07.112Z,68.36
2023-04-30T09:56:07.154Z,68.38
2023-04-30T09:57:07.053Z,66.75
2023-04-30T09:58:07.042Z,68.18
2023-04-30T09:59:07.037Z,67.73
2023-04-30T10:00:07.013Z,66.76
2023-04-30T10:01:07.060Z,68.55
2023-04-30T10:02:06.992Z,66.86
2023-04-30T10:03:07.052Z,65.83
2023-04-30T10:04:06.990Z,66.68
2023-04-30T10:05:06.962Z,67.82
2023-04-30T10:06:06.992Z,67.89
2023-04-30T10:07:06.952Z,66.70
2023-04-30T10:08:06.945Z,67.35
2023-04-30T10:09:06.919Z,67.75
2023-04-30T10:10:06.927Z,67.27
2023-04-30T10:11:06.910Z,66.70
2023-04-30T10:12:06.889Z,65.33
2023-04-30T10:13:07.712Z,67.44
2023-04-30T10:14:07.873Z,67.44
2023-04-30T10:15:06.860Z,68.25
2023-04-30T10:16:06.878Z,68.66
2023-04-30T10:17:06.845Z,68.04
2023-04-30T10:18:07.054Z,67.85
2023-04-30T10:19:06.821Z,66.82
2023-04-30T10:20:06.808Z,66.83
2023-04-30T10:21:06.796Z,67.82
2023-04-30T10:22:06.789Z,66.81
2023-04-30T10:23:06.792Z,66.61
2023-04-30T10:24:06.776Z,67.23
2023-04-30T10:25:06.765Z,66.75
2023-04-30T10:26:06.759Z,67.42
2023-04-30T10:27:06.758Z,69.51
2023-04-30T10:28:06.765Z,66.65
2023-04-30T10:29:06.715Z,67.92
2023-04-30T10:30:06.705Z,69.10
2023-04-30T10:31:06.695Z,68.76
2023-04-30T10:32:06.709Z,70.09
2023-04-30T10:33:06.728Z,69.16
2023-04-30T10:34:06.681Z,68.37
2023-04-30T10:35:06.660Z,69.71
2023-04-30T10:36:06.648Z,70.64
2023-04-30T10:37:06.632Z,69.67
2023-04-30T10:38:06.627Z,69.26
2023-04-30T10:39:06.628Z,68.67
2023-04-30T10:40:06.601Z,69.24
2023-04-30T10:41:06.601Z,68.69
2023-04-30T10:42:06.585Z,69.49
2023-04-30T10:43:06.636Z,70.35
2023-04-30T10:44:06.573Z,68.91
2023-04-30T10:45:06.558Z,68.89
2023-04-30T10:46:06.590Z,69.52
2023-04-30T10:47:06.552Z,71.26
2023-04-30T10:48:06.684Z,68.66
2023-04-30T10:49:06.540Z,69.36
2023-04-30T10:50:06.516Z,70.02
2023-04-30T10:51:06.515Z,70.18
2023-04-30T10:52:06.494Z,70.74
2023-04-30T10:53:06.493Z,69.30
2023-04-30T10:54:06.483Z,69.47
2023-04-30T10:55:06.454Z,68.02
2023-04-30T10:56:06.673Z,69.52
2023-04-30T10:57:06.462Z,70.11
2023-04-30T10:58:06.439Z,67.77
2023-04-30T10:59:06.437Z,69.32
2023-04-30T11:00:06.419Z,68.73
2023-04-30T11:01:06.437Z,67.77
2023-04-30T11:02:06.396Z,70.22
2023-04-30T11:03:06.404Z,67.59
2023-04-30T11:04:06.421Z,69.43
2023-04-30T11:05:06.546Z,69.22
2023-04-30T11:06:06.394Z,68.68
2023-04-30T11:07:06.350Z,69.06
2023-04-30T11:08:06.344Z,69.46
2023-04-30T11:09:06.357Z,70.78
2023-04-30T11:10:06.322Z,69.47
2023-04-30T11:11:06.319Z,70.23
2023-04-30T11:12:06.305Z,69.84
2023-04-30T11:13:06.301Z,70.06
2023-04-30T11:14:06.305Z,68.63
2023-04-30T11:15:06.277Z,70.17
2023-04-30T11:16:06.286Z,69.09
2023-04-30T11:17:06.255Z,69.53
2023-04-30T11:18:06.264Z,70.14
2023-04-30T11:19:06.270Z,70.20
2023-04-30T11:20:06.229Z,71.51
2023-04-30T11:21:06.214Z,70.45
2023-04-30T11:22:06.202Z,71.21
2023-04-30T11:23:06.191Z,70.53
2023-04-30T11:24:06.201Z,70.87
2023-04-30T11:25:06.179Z,68.42
2023-04-30T11:26:06.190Z,70.16
2023-04-30T11:27:06.232Z,68.41
2023-04-30T11:28:06.157Z,69.47
2023-04-30T11:29:06.187Z,70.18
2023-04-30T11:30:06.137Z,70.68
2023-04-30T11:31:06.194Z,71.61
2023-04-30T11:32:06.106Z,70.18
2023-04-30T11:33:06.149Z,70.89
2023-04-30T11:34:06.103Z,70.45
2023-04-30T11:35:06.128Z,69.26
2023-04-30T11:36:06.167Z,69.94
2023-04-30T11:37:06.067Z,70.19
2023-04-30T11:38:06.057Z,69.54
2023-04-30T11:39:06.070Z,68.91
2023-04-30T11:40:06.056Z,68.40
2023-04-30T11:41:06.016Z,70.51
2023-04-30T11:42:06.013Z,68.00
2023-04-30T11:43:06.005Z,67.57
2023-04-30T11:44:06.006Z,66.41
2023-04-30T11:45:05.987Z,66.55
2023-04-30T11:46:05.985Z,65.87
2023-04-30T11:47:06.066Z,68.23
2023-04-30T11:48:06.040Z,68.14
2023-04-30T11:49:05.960Z,67.21
2023-04-30T11:50:05.937Z,67.51
2023-04-30T11:51:05.924Z,70.03
2023-04-30T11:52:05.961Z,70.42
2023-04-30T11:53:05.916Z,70.83
2023-04-30T11:54:06.903Z,71.94
2023-04-30T11:55:05.883Z,69.43
2023-04-30T11:56:05.882Z,69.02
2023-04-30T11:57:05.871Z,71.09
2023-04-30T11:58:05.881Z,68.05
2023-04-30T11:59:05.871Z,68.24
2023-04-30T12:00:05.837Z,68.46
2023-04-30T12:01:05.834Z,67.94
2023-04-30T12:02:05.867Z,67.84
2023-04-30T12:03:05.906Z,68.82
2023-04-30T12:04:05.944Z,67.51
2023-04-30T12:05:05.794Z,68.82
2023-04-30T12:06:05.835Z,69.84
2023-04-30T12:07:05.773Z,69.30
2023-04-30T12:08:05.777Z,67.57
2023-04-30T12:09:05.754Z,66.74
2023-04-30T12:10:05.751Z,67.67
2023-04-30T12:11:05.736Z,68.23
2023-04-30T12:12:05.728Z,68.84
2023-04-30T12:13:05.721Z,67.22
2023-04-30T12:14:05.713Z,66.54
2023-04-30T12:15:05.700Z,65.17
2023-04-30T12:16:05.735Z,67.06
2023-04-30T12:17:05.702Z,69.01
2023-04-30T12:18:05.754Z,65.81
2023-04-30T12:19:05.663Z,67.52
2023-04-30T12:20:05.657Z,67.32
2023-04-30T12:21:05.639Z,67.26
2023-04-30T12:22:05.631Z,67.67
2023-04-30T12:23:05.628Z,68.33
2023-04-30T12:24:05.610Z,68.40
2023-04-30T12:25:05.604Z,68.75
2023-04-30T12:26:05.590Z,69.93
2023-04-30T12:27:05.579Z,69.31
2023-04-30T12:28:05.585Z,66.35
2023-04-30T12:29:05.595Z,68.58
2023-04-30T12:30:05.567Z,67.55
2023-04-30T12:31:05.549Z,68.01
2023-04-30T12:32:05.596Z,68.71
2023-04-30T12:33:05.574Z,68.36
2023-04-30T12:34:05.524Z,67.18
2023-04-30T12:35:05.513Z,67.71
2023-04-30T12:36:05.501Z,69.11
2023-04-30T12:37:05.493Z,68.12
2023-04-30T12:38:05.502Z,69.91
2023-04-30T12:39:05.464Z,69.38
2023-04-30T12:40:05.466Z,68.44
2023-04-30T12:41:05.447Z,67.89
2023-04-30T12:42:05.440Z,67.37
2023-04-30T12:43:05.444Z,67.79
2023-04-30T12:44:05.418Z,66.59
2023-04-30T12:45:05.420Z,66.29
2023-04-30T12:46:05.414Z,68.82
2023-04-30T12:47:05.393Z,67.28
2023-04-30T12:48:05.426Z,68.53
2023-04-30T12:49:05.375Z,68.56
2023-04-30T12:50:05.365Z,68.57
2023-04-30T12:51:05.353Z,68.13
2023-04-30T12:52:05.358Z,67.09